Time;durP1;ratioP1;P1;durP2;ratioP2;P2;SDS_P1;SDS_P2;PMS_P1;PMS_P2;Temp;Humidity;BMP_temperature;BMP_pressure;BME280_temperature;BME280_humidity;BME280_pressure;Samples;Min_cycle;Max_cycle;Signal;HPM_P1;HPM_P2
2023/11/05 00:03:49;;;;;;;0.00;0.00;;;3.30;99.90;;;;;;25593766;23;20009;-52
2023/11/05 00:13:51;;;;;;;0.00;0.00;;;3.00;99.90;;;;;;25591479;23;20005;-51
2023/11/05 00:23:52;;;;;;;0.00;0.00;;;2.90;99.90;;;;;;25592869;23;20013;-50
2023/11/05 00:33:54;;;;;;;0.00;0.00;;;2.60;99.90;;;;;;25592877;23;20009;-51
2023/11/05 00:43:56;;;;;;;0.10;0.00;;;2.50;99.90;;;;;;25592445;23;20009;-51
2023/11/05 00:53:57;;;;;;;0.10;0.00;;;2.40;99.90;;;;;;25592679;23;20051;-48
2023/11/05 01:03:59;;;;;;;3.40;0.00;;;2.40;99.90;;;;;;25590858;23;20075;-50
2023/11/05 01:14:01;;;;;;;0.00;0.00;;;2.70;99.90;;;;;;25591549;23;20048;-51
2023/11/05 01:24:03;;;;;;;0.00;0.00;;;3.00;99.90;;;;;;25591370;23;20009;-51
2023/11/05 01:34:05;;;;;;;0.10;0.00;;;3.10;99.90;;;;;;25596732;23;20356;-50
2023/11/05 01:44:07;;;;;;;0.00;0.00;;;3.20;99.90;;;;;;25598848;23;20005;-48
2023/11/05 01:54:09;;;;;;;0.17;0.00;;;3.30;99.90;;;;;;25596794;23;20013;-49
2023/11/05 02:04:11;;;;;;;0.00;0.00;;;3.40;99.90;;;;;;25597626;23;20005;-51
2023/11/05 02:14:16;;;;;;;0.00;0.00;;;3.60;99.90;;;;;;25595953;23;20024;-49
2023/11/05 02:24:18;;;;;;;0.00;0.00;;;4.00;99.90;;;;;;25597028;23;20320;-61
2023/11/05 02:34:20;;;;;;;0.00;0.00;;;3.90;99.90;;;;;;25594757;23;20005;-50
2023/11/05 02:44:22;;;;;;;0.00;0.00;;;4.00;99.90;;;;;;25569719;23;20077;-50
2023/11/05 02:54:23;;;;;;;0.00;0.00;;;4.50;99.90;;;;;;25596130;23;20008;-49
2023/11/05 03:04:25;;;;;;;0.20;0.00;;;4.60;99.90;;;;;;25594992;23;20432;-49
2023/11/05 03:14:27;;;;;;;0.35;0.00;;;4.50;99.90;;;;;;25594800;23;20013;-51
2023/11/05 03:24:29;;;;;;;0.08;0.00;;;4.30;99.90;;;;;;25593173;23;20013;-50
2023/11/05 03:34:30;;;;;;;0.10;0.00;;;3.90;99.90;;;;;;25593662;23;20001;-52
2023/11/05 03:44:32;;;;;;;1.88;0.00;;;3.80;99.90;;;;;;25593242;23;20013;-60
2023/11/05 03:54:34;;;;;;;0.00;0.00;;;3.70;99.90;;;;;;25591315;23;20028;-47
2023/11/05 04:04:35;;;;;;;1.45;0.00;;;4.10;99.90;;;;;;25592845;23;20005;-48
2023/11/05 04:14:37;;;;;;;0.05;0.00;;;4.20;99.90;;;;;;25590384;23;20017;-55
2023/11/05 04:24:39;;;;;;;0.00;0.00;;;4.10;99.90;;;;;;25592471;23;20326;-50
2023/11/05 04:34:41;;;;;;;0.00;0.00;;;4.10;99.90;;;;;;25592064;23;20328;-50
2023/11/05 04:44:42;;;;;;;252.90;6.55;;;3.90;99.90;;;;;;25591210;23;20028;-59
2023/11/05 04:54:44;;;;;;;0.30;0.20;;;3.60;99.90;;;;;;25591622;23;20005;-50
2023/11/05 05:04:46;;;;;;;0.00;0.00;;;3.10;99.90;;;;;;25593328;23;20028;-48
2023/11/05 05:14:51;;;;;;;0.10;0.00;;;3.50;99.90;;;;;;25598212;23;20009;-52
2023/11/05 05:24:53;;;;;;;0.25;0.00;;;3.70;99.90;;;;;;25598477;23;20012;-51
2023/11/05 05:34:55;;;;;;;0.00;0.00;;;3.60;99.90;;;;;;25598411;23;20506;-47
2023/11/05 05:44:56;;;;;;;0.10;0.00;;;3.90;99.90;;;;;;25598075;23;20028;-50
2023/11/05 05:54:58;;;;;;;0.00;0.00;;;3.90;99.90;;;;;;25597593;23;20005;-61
2023/11/05 06:05:00;;;;;;;0.10;0.00;;;4.00;99.90;;;;;;25597035;23;20071;-50
2023/11/05 06:15:02;;;;;;;0.00;0.00;;;4.80;99.90;;;;;;25596386;23;20076;-49
2023/11/05 06:25:05;;;;;;;0.10;0.00;;;4.80;99.90;;;;;;25596039;23;20009;-51
2023/11/05 06:35:07;;;;;;;1.27;0.00;;;4.60;99.90;;;;;;25595840;23;20001;-48
2023/11/05 06:45:09;;;;;;;0.30;0.00;;;4.80;99.90;;;;;;25594737;23;20055;-50
2023/11/05 06:55:11;;;;;;;0.20;0.00;;;6.30;99.90;;;;;;25594735;23;20321;-47
2023/11/05 07:05:15;;;;;;;0.00;0.00;;;6.50;99.90;;;;;;25594583;23;20310;-53
2023/11/05 07:15:18;;;;;;;0.00;0.00;;;6.40;99.90;;;;;;25594140;23;20388;-48
2023/11/05 07:25:19;;;;;;;0.10;0.00;;;6.70;99.90;;;;;;25593510;23;20001;-49
2023/11/05 07:35:22;;;;;;;0.57;0.03;;;7.70;99.90;;;;;;25593695;23;20009;-52
2023/11/05 07:45:24;;;;;;;0.00;0.00;;;8.40;99.90;;;;;;25593078;23;20055;-52
2023/11/05 07:55:25;;;;;;;0.00;0.00;;;8.60;99.90;;;;;;25593149;23;20005;-49
2023/11/05 08:05:27;;;;;;;0.00;0.00;;;8.40;99.90;;;;;;25592562;23;20301;-51
2023/11/05 08:15:29;;;;;;;0.25;0.00;;;8.80;99.90;;;;;;25589215;23;20017;-51
2023/11/05 08:25:31;;;;;;;0.65;0.00;;;9.30;99.90;;;;;;25587503;23;20055;-50
2023/11/05 08:35:33;;;;;;;0.00;0.00;;;10.00;99.90;;;;;;25586868;23;19997;-59
2023/11/05 08:45:35;;;;;;;0.00;0.00;;;9.50;99.90;;;;;;25595273;23;20005;-59
2023/11/05 08:55:37;;;;;;;0.50;0.10;;;9.50;99.90;;;;;;25595931;23;20002;-59
2023/11/05 09:05:40;;;;;;;0.90;0.20;;;9.90;99.90;;;;;;25595398;23;20005;-51
2023/11/05 09:15:42;;;;;;;0.08;0.00;;;10.00;99.90;;;;;;25597167;23;20068;-51
2023/11/05 09:25:44;;;;;;;0.73;0.10;;;10.50;99.90;;;;;;25598909;23;20001;-59
2023/11/05 09:35:45;;;;;;;0.17;0.00;;;10.40;99.90;;;;;;25597337;23;20048;-58
2023/11/05 09:45:52;;;;;;;0.70;0.05;;;10.10;99.90;;;;;;25597408;23;20001;-59
2023/11/05 09:55:54;;;;;;;1.27;0.00;;;10.10;99.90;;;;;;25594794;23;20008;-51
2023/11/05 10:05:57;;;;;;;0.63;0.00;;;10.30;99.90;;;;;;25595435;23;20005;-59
2023/11/05 10:16:00;;;;;;;0.32;0.00;;;10.70;99.90;;;;;;25596358;23;20013;-59
2023/11/05 10:26:02;;;;;;;0.10;0.00;;;11.00;99.90;;;;;;25596167;23;20009;-58
2023/11/05 10:36:06;;;;;;;0.35;0.00;;;11.10;99.90;;;;;;25594435;23;20012;-60
2023/11/05 10:46:10;;;;;;;0.40;0.00;;;11.30;99.90;;;;;;25594483;23;20005;-59
2023/11/05 10:56:34;;;;;;;0.82;0.20;;;11.80;99.90;;;;;;25594583;23;20005;-53
2023/11/05 11:06:40;;;;;;;0.75;0.00;;;11.80;99.90;;;;;;25635591;23;20012;-60
2023/11/05 11:16:43;;;;;;;0.40;0.10;;;12.10;98.90;;;;;;25619691;23;20466;-51
2023/11/05 11:26:45;;;;;;;0.55;0.10;;;11.60;99.90;;;;;;25593597;23;20008;-49
2023/11/05 11:36:58;;;;;;;0.20;0.00;;;11.20;99.90;;;;;;25593393;23;20005;-59
2023/11/05 11:47:00;;;;;;;0.85;0.10;;;11.20;99.90;;;;;;25634431;23;20004;-59
2023/11/05 11:57:01;;;;;;;0.30;0.10;;;11.80;99.90;;;;;;25594352;23;20333;-50
2023/11/05 12:07:05;;;;;;;0.28;0.10;;;11.60;99.90;;;;;;25592855;23;20012;-59
2023/11/05 12:17:07;;;;;;;0.20;0.00;;;11.30;99.90;;;;;;25591224;23;20032;-52
2023/11/05 12:27:09;;;;;;;1.25;0.10;;;11.90;99.90;;;;;;25591795;23;20009;-48
2023/11/05 12:37:11;;;;;;;3.05;0.20;;;11.90;99.90;;;;;;25591956;23;20028;-59
2023/11/05 12:47:12;;;;;;;0.45;0.10;;;12.00;99.70;;;;;;25590069;23;20032;-60
2023/11/05 12:57:14;;;;;;;0.90;0.00;;;11.90;99.90;;;;;;25591531;23;20005;-60
2023/11/05 13:07:16;;;;;;;0.35;0.03;;;12.00;99.90;;;;;;25589429;23;20009;-59
2023/11/05 13:17:19;;;;;;;1.42;0.20;;;11.30;99.90;;;;;;25590313;23;20337;-60
2023/11/05 13:27:21;;;;;;;0.73;0.10;;;10.80;99.90;;;;;;25594030;23;20305;-60
2023/11/05 13:37:23;;;;;;;1.65;0.10;;;10.20;99.90;;;;;;25597521;23;20001;-60
2023/11/05 13:47:25;;;;;;;0.08;0.00;;;10.10;99.90;;;;;;25597711;23;20012;-59
2023/11/05 13:57:28;;;;;;;0.10;0.00;;;10.00;99.90;;;;;;25595405;23;20325;-59
2023/11/05 14:07:32;;;;;;;1.00;0.20;;;9.90;99.90;;;;;;25595760;23;20009;-59
2023/11/05 14:17:34;;;;;;;0.75;0.00;;;9.60;99.90;;;;;;25594547;23;20044;-59
2023/11/05 14:27:36;;;;;;;0.63;0.10;;;9.30;99.90;;;;;;25594572;23;20278;-60
2023/11/05 14:37:38;;;;;;;0.55;0.10;;;9.30;99.90;;;;;;25595663;23;20376;-61
2023/11/05 14:47:39;;;;;;;0.28;0.10;;;9.10;99.90;;;;;;25593763;23;20001;-60
2023/11/05 14:57:41;;;;;;;1.80;0.20;;;8.90;99.90;;;;;;25594582;23;20448;-61
2023/11/05 15:07:44;;;;;;;0.90;0.10;;;8.80;99.90;;;;;;25594137;23;20005;-61
2023/11/05 15:17:46;;;;;;;0.98;0.10;;;8.40;99.90;;;;;;25593092;23;20013;-51
2023/11/05 15:27:48;;;;;;;0.15;0.00;;;8.30;99.90;;;;;;25593718;23;20012;-51
2023/11/05 15:37:50;;;;;;;0.55;0.20;;;8.20;99.90;;;;;;25593529;23;20421;-60
2023/11/05 15:47:53;;;;;;;0.35;0.10;;;8.60;99.90;;;;;;25592246;23;20286;-60
2023/11/05 15:57:56;;;;;;;1.45;0.20;;;8.70;99.90;;;;;;25592329;23;20012;-49
2023/11/05 16:08:00;;;;;;;0.60;0.17;;;8.60;99.90;;;;;;25592844;23;20035;-49
2023/11/05 16:18:01;;;;;;;0.45;0.10;;;8.50;99.90;;;;;;25592741;23;20037;-47
2023/11/05 16:28:03;;;;;;;0.63;0.10;;;8.50;99.90;;;;;;25592946;23;20067;-50
2023/11/05 16:38:08;;;;;;;1.90;0.20;;;8.50;99.90;;;;;;25594144;23;20440;-48
2023/11/05 16:48:10;;;;;;;0.60;0.20;;;8.40;99.90;;;;;;25592646;23;20005;-48
2023/11/05 16:58:12;;;;;;;2.03;0.25;;;8.30;99.90;;;;;;25592821;23;20008;-50
2023/11/05 17:08:14;;;;;;;1.17;0.00;;;8.40;99.90;;;;;;25600603;23;20310;-51
2023/11/05 17:18:17;;;;;;;0.30;0.00;;;8.80;99.90;;;;;;25599706;23;20344;-60
2023/11/05 17:28:19;;;;;;;0.73;0.10;;;8.90;99.90;;;;;;25599571;23;20005;-50
2023/11/05 17:38:21;;;;;;;0.60;0.20;;;8.80;99.90;;;;;;25599267;23;20008;-52
2023/11/05 17:48:24;;;;;;;0.65;0.00;;;8.90;99.90;;;;;;25598976;23;20503;-49
2023/11/05 17:58:26;;;;;;;0.38;0.00;;;9.10;99.40;;;;;;25598495;23;20009;-50
2023/11/05 18:08:28;;;;;;;0.50;0.00;;;9.60;97.80;;;;;;25597996;23;20333;-51
2023/11/05 18:18:31;;;;;;;0.00;0.00;;;9.60;98.20;;;;;;25596634;23;20071;-51
2023/11/05 18:28:32;;;;;;;0.00;0.00;;;9.40;96.50;;;;;;25596994;23;20005;-51
2023/11/05 18:38:34;;;;;;;0.45;0.00;;;9.10;98.20;;;;;;25596765;23;20005;-50
2023/11/05 18:48:36;;;;;;;0.00;0.00;;;8.80;97.70;;;;;;25596399;23;20013;-52
2023/11/05 18:58:38;;;;;;;0.00;0.00;;;9.10;96.80;;;;;;25595941;23;20005;-48
2023/11/05 19:08:40;;;;;;;0.00;0.00;;;9.20;96.50;;;;;;25595795;23;20004;-52
2023/11/05 19:18:41;;;;;;;0.10;0.00;;;9.50;95.20;;;;;;25595120;23;20029;-49
2023/11/05 19:28:43;;;;;;;3.63;1.00;;;9.50;96.60;;;;;;25594548;23;20005;-48
2023/11/05 19:38:45;;;;;;;3.22;1.80;;;7.80;99.90;;;;;;25592750;23;20027;-48
2023/11/05 19:48:47;;;;;;;0.73;0.10;;;6.00;99.90;;;;;;25592489;23;20325;-51
2023/11/05 19:58:49;;;;;;;3.58;1.08;;;5.10;99.90;;;;;;25593509;23;20009;-53
2023/11/05 20:08:51;;;;;;;0.00;0.00;;;6.70;99.90;;;;;;25591579;23;20016;-59
2023/11/05 20:18:53;;;;;;;0.00;0.00;;;7.70;99.40;;;;;;25592662;23;20013;-52
2023/11/05 20:28:55;;;;;;;0.00;0.00;;;8.70;98.40;;;;;;25592898;23;20005;-49
2023/11/05 20:38:56;;;;;;;0.00;0.00;;;9.00;96.00;;;;;;25598264;23;20009;-51
2023/11/05 20:48:59;;;;;;;0.00;0.00;;;9.00;96.40;;;;;;25599257;23;20120;-51
2023/11/05 20:59:02;;;;;;;0.13;0.00;;;9.00;95.20;;;;;;25600369;23;20064;-49
2023/11/05 21:09:06;;;;;;;0.00;0.00;;;8.10;98.30;;;;;;25599829;23;20001;-47
2023/11/05 21:19:08;;;;;;;0.00;0.00;;;7.10;99.90;;;;;;25599549;23;20016;-51
2023/11/05 21:29:09;;;;;;;0.00;0.00;;;6.70;98.30;;;;;;25599371;23;20487;-48
2023/11/05 21:39:12;;;;;;;0.00;0.00;;;8.30;95.90;;;;;;25600294;23;20031;-52
2023/11/05 21:49:14;;;;;;;0.15;0.00;;;7.90;98.40;;;;;;25597806;23;20005;-51
2023/11/05 21:59:17;;;;;;;0.00;0.00;;;6.80;99.90;;;;;;25597949;23;20009;-52
2023/11/05 22:09:19;;;;;;;0.28;0.00;;;6.10;99.90;;;;;;25597802;23;20060;-52
2023/11/05 22:19:21;;;;;;;0.08;0.00;;;7.20;98.30;;;;;;25597500;23;20068;-51
2023/11/05 22:29:22;;;;;;;0.00;0.00;;;7.20;99.40;;;;;;25597283;23;20012;-51
2023/11/05 22:39:24;;;;;;;0.98;0.00;;;7.80;96.90;;;;;;25596526;23;20004;-48
2023/11/05 22:49:26;;;;;;;0.00;0.00;;;7.40;98.30;;;;;;25596203;23;20212;-51
2023/11/05 22:59:28;;;;;;;0.35;0.00;;;6.70;98.20;;;;;;25595699;23;20431;-50
2023/11/05 23:09:30;;;;;;;0.15;0.00;;;6.70;98.30;;;;;;25595295;23;20436;-51
2023/11/05 23:19:32;;;;;;;0.25;0.00;;;7.50;96.70;;;;;;25594666;23;20111;-52
2023/11/05 23:29:34;;;;;;;0.05;0.00;;;8.10;95.00;;;;;;25594004;23;20009;-51
2023/11/05 23:39:35;;;;;;;0.00;0.00;;;9.00;91.00;;;;;;25594120;23;20005;-51
2023/11/05 23:49:37;;;;;;;0.00;0.00;;;8.90;90.50;;;;;;25593903;23;20381;-51
2023/11/05 23:59:39;;;;;;;0.00;0.00;;;8.20;92.40;;;;;;25593613;23;20013;-51
